createdAt,value
2022-09-23T00:01:01.702Z,100762.89
2022-09-23T00:06:12.521Z,100764.98
2022-09-23T00:11:19.609Z,100760.13
2022-09-23T00:16:26.410Z,100756.49
2022-09-23T00:21:29.570Z,100756.17
2022-09-23T00:26:32.255Z,100753.59
2022-09-23T00:31:34.989Z,100752.03
2022-09-23T00:36:38.680Z,100752.90
2022-09-23T00:41:41.654Z,100753.23
2022-09-23T00:46:44.513Z,100748.36
2022-09-23T00:51:54.618Z,100745.80
2022-09-23T00:56:59.788Z,100748.92
2022-09-23T01:02:03.803Z,100749.96
2022-09-23T01:07:09.638Z,100748.05
2022-09-23T01:12:22.817Z,100746.84
2022-09-23T01:17:47.612Z,100744.21
2022-09-23T01:23:09.196Z,100740.03
2022-09-23T01:28:50.884Z,100736.05
2022-09-23T01:34:04.813Z,100735.88
2022-09-23T01:39:24.290Z,100733.79
2022-09-23T01:44:55.029Z,100733.80
2022-09-23T01:50:29.361Z,100733.98
2022-09-23T01:55:36.928Z,100734.38
2022-09-23T02:00:50.329Z,100733.35
2022-09-23T02:06:01.708Z,100734.38
2022-09-23T02:11:10.665Z,100732.66
2022-09-23T02:16:39.996Z,100733.69
2022-09-23T02:21:52.684Z,100730.23
2022-09-23T02:27:07.978Z,100728.35
2022-09-23T02:32:15.902Z,100731.80
2022-09-23T02:37:49.589Z,100730.08
2022-09-23T02:43:28.145Z,100729.37
2022-09-23T02:48:36.308Z,100729.54
2022-09-23T02:53:40.344Z,100732.08
2022-09-23T02:58:43.928Z,100726.19
2022-09-23T03:03:53.868Z,100718.73
2022-09-23T03:09:08.483Z,100717.03
2022-09-23T03:14:34.842Z,100716.14
2022-09-23T03:19:50.741Z,100720.45
2022-09-23T03:24:56.097Z,100716.09
2022-09-23T03:29:59.641Z,100713.83
2022-09-23T03:35:05.792Z,100711.05
2022-09-23T03:40:27.278Z,100712.29
2022-09-23T03:45:34.251Z,100708.73
2022-09-23T03:50:39.566Z,100705.84
2022-09-23T03:55:42.301Z,100709.63
2022-09-23T04:00:45.345Z,100708.07
2022-09-23T04:05:48.600Z,100697.14
2022-09-23T04:10:54.756Z,100701.29
2022-09-23T04:15:58.147Z,100696.27
2022-09-23T04:21:01.413Z,100696.45
2022-09-23T04:26:05.782Z,100693.86
2022-09-23T04:31:10.054Z,100693.33
2022-09-23T04:36:13.231Z,100693.80
2022-09-23T04:41:17.650Z,100690.31
2022-09-23T04:46:21.055Z,100687.67
2022-09-23T04:51:26.062Z,100682.27
2022-09-23T04:56:32.691Z,100682.70
2022-09-23T05:01:36.667Z,100685.02
2022-09-23T05:06:39.772Z,100678.77
2022-09-23T05:11:43.584Z,100686.48
2022-09-23T05:16:46.327Z,100676.35
2022-09-23T05:21:49.070Z,100682.63
2022-09-23T05:26:55.985Z,100682.40
2022-09-23T05:31:58.728Z,100677.17
2022-09-23T05:37:01.507Z,100682.89
2022-09-23T05:42:05.017Z,100688.67
2022-09-23T05:47:07.822Z,100694.14
2022-09-23T05:52:10.613Z,100694.20
2022-09-23T05:57:13.441Z,100691.00
2022-09-23T06:02:16.310Z,100688.88
2022-09-23T06:07:19.822Z,100693.48
2022-09-23T06:12:23.119Z,100696.20
2022-09-23T06:17:25.953Z,100686.45
2022-09-23T06:22:28.765Z,100682.13
2022-09-23T06:27:31.847Z,100684.36
2022-09-23T06:32:35.206Z,100683.96
2022-09-23T06:37:37.978Z,100686.58
2022-09-23T06:42:47.981Z,100691.96
2022-09-23T06:47:58.854Z,100692.55
2022-09-23T06:53:04.929Z,100692.05
2022-09-23T06:58:09.307Z,100684.54
2022-09-23T07:03:12.495Z,100687.98
2022-09-23T07:08:16.999Z,100687.41
2022-09-23T07:13:20.978Z,100685.58
2022-09-23T07:18:25.589Z,100689.16
2022-09-23T07:23:28.542Z,100687.05
2022-09-23T07:28:32.405Z,100689.23
2022-09-23T07:33:43.800Z,100687.50
2022-09-23T07:38:47.693Z,100680.06
2022-09-23T07:43:55.749Z,100674.88
2022-09-23T07:49:06.080Z,100667.00
2022-09-23T07:54:13.105Z,100663.72
2022-09-23T07:59:18.392Z,100664.69
2022-09-23T08:04:25.032Z,100665.27
2022-09-23T08:09:32.236Z,100663.27
2022-09-23T08:14:35.459Z,100662.65
2022-09-23T08:19:38.299Z,100655.33
2022-09-23T08:24:41.281Z,100651.77
2022-09-23T08:29:44.962Z,100655.98
2022-09-23T08:34:47.818Z,100652.91
2022-09-23T08:39:50.613Z,100651.34
2022-09-23T08:44:58.974Z,100656.23
2022-09-23T08:50:09.906Z,100651.45
2022-09-23T08:55:17.101Z,100651.13
2022-09-23T09:00:26.139Z,100651.86
2022-09-23T09:05:30.081Z,100650.17
2022-09-23T09:16:11.561Z,100643.22
2022-09-23T09:21:16.307Z,100644.04
2022-09-23T09:26:23.806Z,100636.02
2022-09-23T09:31:36.281Z,100624.30
2022-09-23T09:36:51.548Z,100612.12
2022-09-23T09:41:58.643Z,100604.70
2022-09-23T09:47:12.426Z,100613.52
2022-09-23T09:52:30.863Z,100612.65
2022-09-23T09:57:42.826Z,100615.31
2022-09-23T10:02:47.491Z,100623.64
2022-09-23T10:07:50.239Z,100619.13
2022-09-23T10:12:53.201Z,100612.69
2022-09-23T10:17:56.823Z,100611.31
2022-09-23T10:23:07.490Z,100604.25
2022-09-23T10:28:38.554Z,100593.61
2022-09-23T10:33:48.254Z,100585.63
2022-09-23T10:39:20.451Z,100584.42
2022-09-23T10:44:56.606Z,100584.48
2022-09-23T10:50:14.755Z,100583.80
2022-09-23T10:55:29.848Z,100578.76
2022-09-23T11:00:37.937Z,100578.46
2022-09-23T11:05:56.338Z,100577.54
2022-09-23T11:11:22.459Z,100577.34
2022-09-23T11:17:05.906Z,100577.17
2022-09-23T11:22:46.269Z,100575.90
2022-09-23T11:28:10.613Z,100571.16
2022-09-23T11:33:27.988Z,100562.89
2022-09-23T11:38:48.681Z,100567.66
2022-09-23T11:44:28.515Z,100553.98
2022-09-23T11:49:39.394Z,100559.68
2022-09-23T11:54:54.503Z,100561.10
2022-09-23T12:00:04.980Z,100563.52
2022-09-23T12:05:16.730Z,100564.17
2022-09-23T12:10:22.213Z,100560.74
2022-09-23T12:15:50.647Z,100562.54
2022-09-23T12:21:27.153Z,100556.98
2022-09-23T12:26:35.850Z,100551.02
2022-09-23T12:31:42.068Z,100545.40
2022-09-23T12:36:47.319Z,100541.91
2022-09-23T12:41:58.499Z,100540.23
2022-09-23T12:47:25.732Z,100542.24
2022-09-23T12:52:31.980Z,100541.16
2022-09-23T12:57:34.895Z,100534.80
2022-09-23T13:02:47.037Z,100532.50
2022-09-23T13:07:51.098Z,100533.11
2022-09-23T13:12:55.902Z,100528.26
2022-09-23T13:18:20.581Z,100527.78
2022-09-23T13:23:27.332Z,100522.90
2022-09-23T13:28:30.180Z,100518.48
2022-09-23T13:33:44.309Z,100508.06
2022-09-23T13:38:48.419Z,100504.13
2022-09-23T13:43:56.886Z,100503.30
2022-09-23T13:48:59.800Z,100495.69
2022-09-23T13:54:05.275Z,100493.69
2022-09-23T13:59:28.454Z,100486.52
2022-09-23T14:04:31.391Z,100486.73
2022-09-23T14:09:36.053Z,100484.48
2022-09-23T14:14:42.371Z,100474.64
2022-09-23T14:19:46.476Z,100465.91
2022-09-23T14:24:49.912Z,100460.52
2022-09-23T14:29:53.377Z,100454.07
2022-09-23T14:35:03.768Z,100450.71
2022-09-23T14:40:13.456Z,100444.73
2022-09-23T14:45:26.206Z,100443.65
2022-09-23T14:50:39.363Z,100443.23
2022-09-23T14:55:42.951Z,100438.20
2022-09-23T15:00:57.105Z,100437.52
2022-09-23T15:06:09.071Z,100435.95
2022-09-23T15:11:12.209Z,100433.19
2022-09-23T15:16:16.844Z,100437.38
2022-09-23T15:21:22.002Z,100434.28
2022-09-23T15:26:39.370Z,100431.88
2022-09-23T15:31:42.935Z,100427.52
2022-09-23T15:36:46.084Z,100426.62
2022-09-23T15:41:49.382Z,100426.19
2022-09-23T15:47:00.017Z,100421.34
2022-09-23T15:52:05.234Z,100414.16
2022-09-23T15:57:08.031Z,100413.39
2022-09-23T16:02:23.272Z,100417.01
2022-09-23T16:07:26.154Z,100412.04
2022-09-23T16:12:29.352Z,100411.77
2022-09-23T16:17:32.361Z,100412.20
2022-09-23T16:22:35.587Z,100411.84
2022-09-23T16:27:39.902Z,100409.41
2022-09-23T16:32:43.453Z,100407.98
2022-09-23T16:37:47.853Z,100411.05
2022-09-23T16:42:52.532Z,100411.61
2022-09-23T16:47:55.286Z,100412.82
2022-09-23T16:52:58.249Z,100412.11
2022-09-23T16:58:01.934Z,100407.27
2022-09-23T17:03:24.193Z,100406.64
2022-09-23T17:08:26.995Z,100400.21
2022-09-23T17:13:31.256Z,100398.90
2022-09-23T17:18:34.652Z,100395.55
2022-09-23T17:23:38.417Z,100389.76
2022-09-23T17:28:41.357Z,100385.47
2022-09-23T17:33:44.337Z,100389.85
2022-09-23T17:38:48.591Z,100390.68
2022-09-23T17:43:57.161Z,100388.65
2022-09-23T17:49:00.062Z,100387.67
2022-09-23T17:54:03.044Z,100391.67
2022-09-23T17:59:06.763Z,100391.34
2022-09-23T18:04:12.199Z,100394.29
2022-09-23T18:09:15.497Z,100391.73
2022-09-23T18:14:21.224Z,100392.04
2022-09-23T18:19:25.142Z,100392.50
2022-09-23T18:24:32.764Z,100392.96
2022-09-23T18:29:37.125Z,100391.83
2022-09-23T18:34:43.657Z,100395.33
2022-09-23T18:39:49.166Z,100396.86
2022-09-23T18:44:56.440Z,100400.02
2022-09-23T18:50:34.469Z,100397.02
2022-09-23T18:55:37.347Z,100398.13
2022-09-23T19:00:42.739Z,100392.86
2022-09-23T19:05:46.322Z,100391.59
2022-09-23T19:10:55.938Z,100394.59
2022-09-23T19:16:17.299Z,100394.46
2022-09-23T19:21:22.437Z,100395.04
2022-09-23T19:26:32.333Z,100395.77
2022-09-23T19:31:40.823Z,100396.91
2022-09-23T19:36:45.950Z,100394.92
2022-09-23T19:41:49.984Z,100404.88
2022-09-23T19:46:56.313Z,100408.98
2022-09-23T19:52:02.094Z,100407.96
2022-09-23T19:57:04.897Z,100405.02
2022-09-23T20:02:12.359Z,100401.83
2022-09-23T20:07:15.769Z,100395.13
2022-09-23T20:12:18.518Z,100391.27
2022-09-23T20:17:21.532Z,100385.61
2022-09-23T20:22:25.410Z,100375.27
2022-09-23T20:27:32.633Z,100370.27
2022-09-23T20:32:40.758Z,100372.10
2022-09-23T20:37:46.865Z,100371.55
2022-09-23T20:42:50.115Z,100376.90
2022-09-23T20:47:52.831Z,100375.48
2022-09-23T20:52:56.471Z,100375.73
2022-09-23T20:57:59.949Z,100379.02
2022-09-23T21:03:02.770Z,100379.33
2022-09-23T21:08:05.592Z,100377.10
2022-09-23T21:13:08.292Z,100377.55
2022-09-23T21:18:14.602Z,100379.69
2022-09-23T21:23:21.170Z,100381.92
2022-09-23T21:28:24.738Z,100381.98
2022-09-23T21:33:28.919Z,100380.96
2022-09-23T21:38:37.669Z,100374.38
2022-09-23T21:43:40.888Z,100371.75
2022-09-23T21:48:43.755Z,100372.57
2022-09-23T21:53:47.287Z,100374.41
2022-09-23T21:58:52.255Z,100370.87
2022-09-23T22:03:58.103Z,100373.09
2022-09-23T22:09:04.342Z,100370.98
2022-09-23T22:14:09.698Z,100372.19
2022-09-23T22:19:13.719Z,100374.09
2022-09-23T22:24:16.745Z,100376.83
2022-09-23T22:29:38.610Z,100372.44
2022-09-23T22:34:51.983Z,100376.17
2022-09-23T22:39:55.329Z,100373.79
2022-09-23T22:44:58.162Z,100376.05
2022-09-23T22:50:01.731Z,100372.14
2022-09-23T22:55:06.812Z,100370.01
2022-09-23T23:00:11.569Z,100364.52
2022-09-23T23:05:14.688Z,100359.84
2022-09-23T23:10:17.577Z,100355.66
2022-09-23T23:15:20.746Z,100355.36
2022-09-23T23:20:23.787Z,100349.85
2022-09-23T23:25:26.490Z,100347.77
2022-09-23T23:30:29.274Z,100349.87
2022-09-23T23:35:31.988Z,100348.20
2022-09-23T23:40:37.746Z,100346.00
2022-09-23T23:45:40.518Z,100344.65
2022-09-23T23:50:56.454Z,100345.79
2022-09-23T23:56:14.629Z,100345.39
